Time,TemperatureF,DewpointF,PressureIn,WindDirection,WindDirectionDegrees,WindSpeedMPH,WindSpeedGustMPH,Humidity,HourlyPrecipIn,Conditions,Clouds,dailyrainin,SoftwareType,DateUTC
2013-09-25 00:02:00,50.0,44.8,29.95,WNW,292,0.2,0.2,82,-99.99,,,-99.99,tws,2013-09-25 04:02:00,
2013-09-25 00:03:00,50.2,44.9,29.95,ENE,67,0.4,0.4,81,-99.99,,,-99.99,tws,2013-09-25 04:03:00,
2013-09-25 00:04:00,50.6,45.0,29.95,ENE,67,1.7,1.7,80,-99.99,,,-99.99,tws,2013-09-25 04:04:00,
2013-09-25 00:08:00,49.8,45.1,29.95,NNE,22,0.0,0.0,83,-99.99,,,-99.99,tws,2013-09-25 04:08:00,
2013-09-25 00:12:00,49.8,44.9,29.95,NNE,22,1.4,1.4,83,-99.99,,,-99.99,tws,2013-09-25 04:12:00,
2013-09-25 00:17:00,48.6,45.3,29.95,ESE,112,0.0,0.0,88,-99.99,,,-99.99,tws,2013-09-25 04:17:00,
2013-09-25 00:22:00,48.3,45.3,29.95,SSE,157,0.0,0.0,89,-99.99,,,-99.99,tws,2013-09-25 04:22:00,
2013-09-25 00:27:00,47.8,45.1,29.95,South,180,3.6,3.6,90,-99.99,,,-99.99,tws,2013-09-25 04:27:00,
2013-09-25 00:32:00,47.2,44.7,29.95,South,180,2.7,2.7,90,-99.99,,,-99.99,tws,2013-09-25 04:32:00,
2013-09-25 00:37:00,47.3,44.7,29.95,South,180,2.2,2.2,90,-99.99,,,-99.99,tws,2013-09-25 04:37:00,
2013-09-25 00:42:00,47.7,44.8,29.95,South,180,4.0,4.0,89,-99.99,,,-99.99,tws,2013-09-25 04:42:00,
2013-09-25 00:47:00,48.1,44.9,29.95,SE,135,3.0,3.0,88,-99.99,,,-99.99,tws,2013-09-25 04:47:00,
2013-09-25 00:52:00,47.7,44.7,29.95,ESE,112,5.2,5.2,89,-99.99,,,-99.99,tws,2013-09-25 04:52:00,
2013-09-25 00:57:00,47.7,44.6,29.95,SE,135,3.6,3.6,89,-99.99,,,-99.99,tws,2013-09-25 04:57:00,
2013-09-25 01:02:00,47.1,44.3,29.95,SE,135,4.7,4.7,89,-99.99,,,-99.99,tws,2013-09-25 05:02:00,
2013-09-25 01:07:00,47.2,44.5,29.95,ESE,112,1.1,1.1,90,-99.99,,,-99.99,tws,2013-09-25 05:07:00,
2013-09-25 01:12:00,47.9,44.7,29.95,ESE,112,3.2,3.2,88,-99.99,,,-99.99,tws,2013-09-25 05:12:00,
2013-09-25 01:17:00,46.7,44.1,29.95,ENE,67,5.4,5.4,90,-99.99,,,-99.99,tws,2013-09-25 05:17:00,
2013-09-25 01:22:00,47.4,44.5,29.95,East,90,5.9,5.9,89,-99.99,,,-99.99,tws,2013-09-25 05:22:00,
2013-09-25 01:27:00,48.0,44.8,29.95,East,90,6.0,6.0,88,-99.99,,,-99.99,tws,2013-09-25 05:27:00,
2013-09-25 01:32:00,48.1,45.1,29.95,East,90,4.4,4.4,89,-99.99,,,-99.99,tws,2013-09-25 05:32:00,
2013-09-25 01:37:00,47.9,44.9,29.95,ENE,67,5.3,5.3,89,-99.99,,,-99.99,tws,2013-09-25 05:37:00,
2013-09-25 01:42:00,48.0,45.1,29.96,East,90,2.6,2.6,89,-99.99,,,-99.99,tws,2013-09-25 05:42:00,
2013-09-25 01:47:00,47.5,44.8,29.96,East,90,5.9,5.9,89,-99.99,,,-99.99,tws,2013-09-25 05:47:00,
2013-09-25 01:52:00,47.4,44.7,29.96,East,90,6.0,6.0,90,-99.99,,,-99.99,tws,2013-09-25 05:52:00,
2013-09-25 01:57:00,47.8,45.0,29.96,East,90,5.0,5.0,89,-99.99,,,-99.99,tws,2013-09-25 05:57:00,
2013-09-25 02:02:00,47.9,45.0,29.95,East,90,3.6,3.6,89,-99.99,,,-99.99,tws,2013-09-25 06:02:00,
2013-09-25 02:07:00,45.4,42.7,29.95,SW,225,0.0,0.0,90,-99.99,,,-99.99,tws,2013-09-25 06:07:00,
2013-09-25 02:12:00,45.2,43.5,29.95,SSE,157,0.1,0.1,93,-99.99,,,-99.99,tws,2013-09-25 06:12:00,
2013-09-25 02:17:00,45.2,43.7,29.95,ESE,112,3.1,3.1,94,-99.99,,,-99.99,tws,2013-09-25 06:17:00,
2013-09-25 02:22:00,45.4,43.9,29.95,SSE,157,0.0,0.0,94,-99.99,,,-99.99,tws,2013-09-25 06:22:00,
2013-09-25 02:27:00,45.5,44.0,29.95,SE,135,0.0,0.0,94,-99.99,,,-99.99,tws,2013-09-25 06:27:00,
2013-09-25 02:32:00,45.6,44.1,29.95,SE,135,0.0,0.0,94,-99.99,,,-99.99,tws,2013-09-25 06:32:00,
2013-09-25 02:37:00,45.5,43.9,29.95,SE,135,0.0,0.0,94,-99.99,,,-99.99,tws,2013-09-25 06:37:00,
2013-09-25 02:42:00,45.5,44.0,29.95,SE,135,0.0,0.0,94,-99.99,,,-99.99,tws,2013-09-25 06:42:00,
2013-09-25 02:47:00,45.3,43.9,29.95,SE,135,0.0,0.0,94,-99.99,,,-99.99,tws,2013-09-25 06:47:00,
2013-09-25 02:52:00,44.2,43.0,29.95,SE,135,0.0,0.0,95,-99.99,,,-99.99,tws,2013-09-25 06:52:00,
2013-09-25 02:57:00,43.7,42.7,29.95,SSE,157,0.0,0.0,96,-99.99,,,-99.99,tws,2013-09-25 06:57:00,
2013-09-25 03:02:00,44.1,43.2,29.95,SSE,157,0.0,0.0,96,-99.99,,,-99.99,tws,2013-09-25 07:02:00,
2013-09-25 03:07:00,44.1,43.3,29.95,ESE,112,0.0,0.0,97,-99.99,,,-99.99,tws,2013-09-25 07:07:00,
2013-09-25 03:12:00,44.1,43.2,29.96,SE,135,0.0,0.0,96,-99.99,,,-99.99,tws,2013-09-25 07:12:00,
2013-09-25 03:17:00,44.0,43.0,29.95,SE,135,0.0,0.0,96,-99.99,,,-99.99,tws,2013-09-25 07:17:00,
2013-09-25 03:22:00,43.5,42.6,29.95,SE,135,0.0,0.0,96,-99.99,,,-99.99,tws,2013-09-25 07:22:00,
2013-09-25 03:27:00,43.6,42.7,29.95,SE,135,0.0,0.0,96,-99.99,,,-99.99,tws,2013-09-25 07:27:00,
2013-09-25 03:32:00,43.7,42.9,29.95,SE,135,0.0,0.0,96,-99.99,,,-99.99,tws,2013-09-25 07:32:00,
2013-09-25 03:37:00,43.4,42.6,29.95,SE,135,0.0,0.0,97,-99.99,,,-99.99,tws,2013-09-25 07:37:00,
2013-09-25 03:42:00,42.3,41.6,29.95,ESE,112,0.0,0.0,97,-99.99,,,-99.99,tws,2013-09-25 07:42:00,
2013-09-25 03:47:00,42.2,41.6,29.95,East,90,1.4,1.4,97,-99.99,,,-99.99,tws,2013-09-25 07:47:00,
2013-09-25 03:52:00,41.7,41.3,29.95,ENE,67,0.0,0.0,98,-99.99,,,-99.99,tws,2013-09-25 07:52:00,
2013-09-25 03:57:00,41.8,41.4,29.95,ENE,67,4.5,4.5,98,-99.99,,,-99.99,tws,2013-09-25 07:57:00,
2013-09-25 04:02:00,42.0,41.7,29.95,West,270,0.0,0.0,98,-99.99,,,-99.99,tws,2013-09-25 08:02:00,
2013-09-25 04:07:00,41.1,40.6,29.95,West,270,0.0,0.0,98,-99.99,,,-99.99,tws,2013-09-25 08:07:00,
2013-09-25 04:12:00,40.5,40.2,29.95,West,270,0.0,0.0,98,-99.99,,,-99.99,tws,2013-09-25 08:12:00,
2013-09-25 04:17:00,41.7,41.4,29.95,SSW,202,0.0,0.0,98,-99.99,,,-99.99,tws,2013-09-25 08:17:00,
2013-09-25 04:22:00,40.8,40.5,29.94,East,90,0.0,0.0,99,-99.99,,,-99.99,tws,2013-09-25 08:22:00,
2013-09-25 04:27:00,41.4,41.0,29.94,East,90,0.0,0.0,98,-99.99,,,-99.99,tws,2013-09-25 08:27:00,
2013-09-25 04:32:00,41.0,40.6,29.94,East,90,0.0,0.0,98,-99.99,,,-99.99,tws,2013-09-25 08:32:00,
2013-09-25 04:37:00,40.9,40.5,29.95,East,90,0.0,0.0,98,-99.99,,,-99.99,tws,2013-09-25 08:37:00,
2013-09-25 04:42:00,40.1,39.6,29.94,East,90,0.0,0.0,97,-99.99,,,-99.99,tws,2013-09-25 08:42:00,
2013-09-25 04:47:00,40.6,40.2,29.94,East,90,0.0,0.0,98,-99.99,,,-99.99,tws,2013-09-25 08:47:00,
2013-09-25 04:52:00,40.3,40.1,29.94,East,90,0.0,0.0,98,-99.99,,,-99.99,tws,2013-09-25 08:52:00,
2013-09-25 04:57:00,40.9,40.6,29.94,East,90,0.0,0.0,98,-99.99,,,-99.99,tws,2013-09-25 08:57:00,
2013-09-25 05:02:00,41.0,40.6,29.94,East,90,0.0,0.0,98,-99.99,,,-99.99,tws,2013-09-25 09:02:00,
2013-09-25 05:07:00,41.2,40.9,29.94,East,90,0.0,0.0,98,-99.99,,,-99.99,tws,2013-09-25 09:07:00,
2013-09-25 05:12:00,41.4,41.0,29.94,SE,135,0.0,0.0,98,-99.99,,,-99.99,tws,2013-09-25 09:12:00,
2013-09-25 05:17:00,40.5,39.8,29.95,SSW,202,0.0,0.0,97,-99.99,,,-99.99,tws,2013-09-25 09:17:00,
2013-09-25 05:22:00,38.8,38.7,29.95,West,270,0.0,0.0,99,-99.99,,,-99.99,tws,2013-09-25 09:22:00,
2013-09-25 05:27:00,40.5,40.5,29.95,WSW,247,0.0,0.0,100,-99.99,,,-99.99,tws,2013-09-25 09:27:00,
2013-09-25 05:32:00,40.1,40.2,29.95,ESE,112,0.0,0.0,100,-99.99,,,-99.99,tws,2013-09-25 09:32:00,
2013-09-25 05:37:00,39.8,39.8,29.95,ESE,112,0.0,0.0,99,-99.99,,,-99.99,tws,2013-09-25 09:37:00,
2013-09-25 05:42:00,40.1,40.0,29.95,ESE,112,0.0,0.0,99,-99.99,,,-99.99,tws,2013-09-25 09:42:00,
2013-09-25 05:47:00,40.5,40.3,29.95,ESE,112,0.0,0.0,99,-99.99,,,-99.99,tws,2013-09-25 09:47:00,
2013-09-25 05:52:00,40.1,39.9,29.95,ESE,112,0.0,0.0,99,-99.99,,,-99.99,tws,2013-09-25 09:52:00,
2013-09-25 05:57:00,40.6,40.4,29.95,ESE,112,0.0,0.0,99,-99.99,,,-99.99,tws,2013-09-25 09:57:00,
2013-09-25 06:02:00,39.9,39.9,29.95,ESE,112,0.0,0.0,99,-99.99,,,-99.99,tws,2013-09-25 10:02:00,
2013-09-25 06:07:00,40.0,40.1,29.95,East,90,0.0,0.0,100,-99.99,,,-99.99,tws,2013-09-25 10:07:00,
2013-09-25 06:12:00,40.2,40.4,29.95,East,90,0.0,0.0,100,-99.99,,,-99.99,tws,2013-09-25 10:12:00,
2013-09-25 06:17:00,40.3,40.5,29.95,East,90,0.0,0.0,100,-99.99,,,-99.99,tws,2013-09-25 10:17:00,
2013-09-25 06:22:00,40.2,40.3,29.95,ESE,112,0.0,0.0,100,-99.99,,,-99.99,tws,2013-09-25 10:22:00,
2013-09-25 06:27:00,39.8,39.9,29.95,East,90,0.0,0.0,100,-99.99,,,-99.99,tws,2013-09-25 10:27:00,
2013-09-25 06:32:00,39.7,39.7,29.95,ESE,112,0.0,0.0,100,-99.99,,,-99.99,tws,2013-09-25 10:32:00,
2013-09-25 06:37:00,38.7,38.7,29.95,SW,225,0.0,0.0,100,-99.99,,,-99.99,tws,2013-09-25 10:37:00,
2013-09-25 06:42:00,38.5,38.5,29.95,SW,225,0.0,0.0,99,-99.99,,,-99.99,tws,2013-09-25 10:42:00,
2013-09-25 06:47:00,39.6,39.5,29.95,SSE,157,1.5,1.5,99,-99.99,,,-99.99,tws,2013-09-25 10:47:00,
2013-09-25 06:52:00,40.0,39.9,29.95,SE,135,0.0,0.0,99,-99.99,,,-99.99,tws,2013-09-25 10:52:00,
2013-09-25 06:57:00,39.8,39.8,29.95,SSE,157,4.0,4.0,100,-99.99,,,-99.99,tws,2013-09-25 10:57:00,
2013-09-25 07:02:00,39.9,39.9,29.95,SE,135,0.0,0.0,100,-99.99,,,-99.99,tws,2013-09-25 11:02:00,
2013-09-25 07:07:00,39.6,39.7,29.96,SE,135,0.0,0.0,100,-99.99,,,-99.99,tws,2013-09-25 11:07:00,
2013-09-25 07:12:00,40.0,40.1,29.96,SE,135,0.0,0.0,100,-99.99,,,-99.99,tws,2013-09-25 11:12:00,
2013-09-25 07:17:00,40.1,40.2,29.96,SE,135,0.1,0.1,100,-99.99,,,-99.99,tws,2013-09-25 11:17:00,
2013-09-25 07:22:00,40.8,40.7,29.96,SSE,157,0.0,0.0,99,-99.99,,,-99.99,tws,2013-09-25 11:22:00,
2013-09-25 07:27:00,41.4,41.3,29.97,SSE,157,0.0,0.0,99,-99.99,,,-99.99,tws,2013-09-25 11:27:00,
2013-09-25 07:32:00,41.6,41.1,29.97,South,180,0.0,0.0,98,-99.99,,,-99.99,tws,2013-09-25 11:32:00,
2013-09-25 07:37:00,42.0,41.7,29.97,SSE,157,0.0,0.0,98,-99.99,,,-99.99,tws,2013-09-25 11:37:00,
2013-09-25 07:42:00,42.4,41.9,29.97,SSE,157,0.0,0.0,98,-99.99,,,-99.99,tws,2013-09-25 11:42:00,
2013-09-25 07:47:00,42.8,42.3,29.97,SSE,157,0.0,0.0,97,-99.99,,,-99.99,tws,2013-09-25 11:47:00,
2013-09-25 07:52:00,43.3,42.7,29.97,SSE,157,0.0,0.0,97,-99.99,,,-99.99,tws,2013-09-25 11:52:00,
2013-09-25 07:57:00,43.7,42.8,29.97,SSE,157,1.4,1.4,96,-99.99,,,-99.99,tws,2013-09-25 11:57:00,
2013-09-25 08:02:00,44.3,43.7,29.96,SSE,157,0.1,0.1,97,-99.99,,,-99.99,tws,2013-09-25 12:02:00,
2013-09-25 08:07:00,45.3,44.2,29.97,ESE,112,0.0,0.0,95,-99.99,,,-99.99,tws,2013-09-25 12:07:00,
2013-09-25 08:12:00,46.3,45.2,29.97,SE,135,0.3,0.3,96,-99.99,,,-99.99,tws,2013-09-25 12:12:00,
2013-09-25 08:17:00,46.3,44.9,29.97,ENE,67,1.0,1.0,94,-99.99,,,-99.99,tws,2013-09-25 12:17:00,
2013-09-25 08:22:00,47.1,45.6,29.97,ESE,112,2.7,2.7,94,-99.99,,,-99.99,tws,2013-09-25 12:22:00,
2013-09-25 08:27:00,46.8,45.1,29.97,SE,135,4.1,4.1,94,-99.99,,,-99.99,tws,2013-09-25 12:27:00,
2013-09-25 08:28:00,47.1,45.4,29.97,SE,135,2.0,2.0,93,-99.99,,,-99.99,tws,2013-09-25 12:28:00,
2013-09-25 08:33:00,47.5,45.6,29.97,SSE,157,4.8,4.8,92,-99.99,,,-99.99,tws,2013-09-25 12:33:00,
2013-09-25 08:38:00,48.0,46.0,29.97,SE,135,2.5,2.5,92,-99.99,,,-99.99,tws,2013-09-25 12:38:00,
2013-09-25 08:43:00,49.2,46.8,29.97,East,90,1.3,1.3,91,-99.99,,,-99.99,tws,2013-09-25 12:43:00,
2013-09-25 08:48:00,49.6,46.8,29.97,SSE,157,0.0,0.0,90,-99.99,,,-99.99,tws,2013-09-25 12:48:00,
2013-09-25 08:53:00,50.4,47.5,29.97,ENE,67,2.4,2.4,89,-99.99,,,-99.99,tws,2013-09-25 12:53:00,
2013-09-25 08:58:00,50.9,47.8,29.97,SSE,157,0.1,0.1,89,-99.99,,,-99.99,tws,2013-09-25 12:58:00,
2013-09-25 09:03:00,51.0,47.5,29.97,SSE,157,2.6,2.6,87,-99.99,,,-99.99,tws,2013-09-25 13:03:00,
2013-09-25 09:08:00,51.0,47.9,29.97,ESE,112,4.3,4.3,88,-99.99,,,-99.99,tws,2013-09-25 13:08:00,
2013-09-25 09:13:00,52.3,48.9,29.97,SE,135,4.3,4.3,88,-99.99,,,-99.99,tws,2013-09-25 13:13:00,
2013-09-25 09:18:00,53.8,49.5,29.97,East,90,1.2,1.2,85,-99.99,,,-99.99,tws,2013-09-25 13:18:00,
2013-09-25 09:23:00,54.7,50.4,29.97,SE,135,0.0,0.0,85,-99.99,,,-99.99,tws,2013-09-25 13:23:00,
2013-09-25 09:28:00,55.0,50.3,29.96,SE,135,2.3,2.3,84,-99.99,,,-99.99,tws,2013-09-25 13:28:00,
2013-09-25 09:33:00,55.3,49.6,29.97,ESE,112,2.5,2.5,80,-99.99,,,-99.99,tws,2013-09-25 13:33:00,
2013-09-25 09:38:00,55.4,50.0,29.97,East,90,0.0,0.0,81,-99.99,,,-99.99,tws,2013-09-25 13:38:00,
2013-09-25 09:43:00,54.9,49.0,29.96,NNW,337,0.1,0.1,80,-99.99,,,-99.99,tws,2013-09-25 13:43:00,
2013-09-25 09:48:00,54.5,48.9,29.96,North,360,0.0,0.0,81,-99.99,,,-99.99,tws,2013-09-25 13:48:00,
2013-09-25 09:53:00,54.5,48.8,29.96,ENE,67,0.0,0.0,80,-99.99,,,-99.99,tws,2013-09-25 13:53:00,
2013-09-25 09:58:00,58.7,51.7,29.95,NNW,337,0.0,0.0,77,-99.99,,,-99.99,tws,2013-09-25 13:58:00,
2013-09-25 10:03:00,56.2,49.8,29.96,NE,45,0.1,0.1,78,-99.99,,,-99.99,tws,2013-09-25 14:03:00,
2013-09-25 10:08:00,59.1,52.2,29.95,North,0,1.0,1.0,77,-99.99,,,-99.99,tws,2013-09-25 14:08:00,
2013-09-25 10:13:00,60.3,52.3,29.95,North,0,0.0,0.0,74,-99.99,,,-99.99,tws,2013-09-25 14:13:00,
2013-09-25 10:18:00,57.3,51.1,29.95,West,270,1.1,1.1,79,-99.99,,,-99.99,tws,2013-09-25 14:18:00,
2013-09-25 10:23:00,57.7,50.7,29.95,West,270,0.0,0.0,77,-99.99,,,-99.99,tws,2013-09-25 14:23:00,
2013-09-25 10:28:00,56.9,50.3,29.95,West,270,3.0,3.0,78,-99.99,,,-99.99,tws,2013-09-25 14:28:00,
2013-09-25 10:33:00,58.7,50.6,29.95,NNE,22,1.8,1.8,74,-99.99,,,-99.99,tws,2013-09-25 14:33:00,
2013-09-25 10:38:00,61.7,52.6,29.95,NNE,22,3.1,3.1,71,-99.99,,,-99.99,tws,2013-09-25 14:38:00,
2013-09-25 10:43:00,61.7,53.2,29.95,ESE,112,0.4,0.4,73,-99.99,,,-99.99,tws,2013-09-25 14:43:00,
2013-09-25 10:48:00,59.2,51.1,29.95,NNE,22,1.0,1.0,74,-99.99,,,-99.99,tws,2013-09-25 14:48:00,
2013-09-25 10:53:00,59.7,51.2,29.95,East,90,0.1,0.1,73,-99.99,,,-99.99,tws,2013-09-25 14:53:00,
2013-09-25 10:58:00,62.5,52.9,29.94,ESE,112,4.4,4.4,70,-99.99,,,-99.99,tws,2013-09-25 14:58:00,
2013-09-25 11:03:00,61.4,52.3,29.95,North,360,0.0,0.0,71,-99.99,,,-99.99,tws,2013-09-25 15:03:00,
2013-09-25 11:08:00,64.3,52.2,29.95,NE,45,0.2,0.2,64,-99.99,,,-99.99,tws,2013-09-25 15:08:00,
2013-09-25 11:13:00,60.5,50.5,29.95,WSW,247,6.3,6.3,69,-99.99,,,-99.99,tws,2013-09-25 15:13:00,
2013-09-25 11:18:00,60.5,51.0,29.94,SE,135,1.2,1.2,70,-99.99,,,-99.99,tws,2013-09-25 15:18:00,
2013-09-25 11:23:00,62.1,52.0,29.94,North,360,0.4,0.4,69,-99.99,,,-99.99,tws,2013-09-25 15:23:00,
2013-09-25 11:28:00,60.7,51.2,29.94,WSW,247,7.9,7.9,70,-99.99,,,-99.99,tws,2013-09-25 15:28:00,
2013-09-25 11:33:00,65.8,53.0,29.94,South,180,0.4,0.4,62,-99.99,,,-99.99,tws,2013-09-25 15:33:00,
2013-09-25 11:38:00,66.9,54.6,29.94,SE,135,4.3,4.3,64,-99.99,,,-99.99,tws,2013-09-25 15:38:00,
2013-09-25 11:43:00,67.2,55.9,29.93,East,90,8.7,8.7,66,-99.99,,,-99.99,tws,2013-09-25 15:43:00,
2013-09-25 11:49:00,67.7,55.7,29.94,ESE,112,4.6,4.6,64,-99.99,,,-99.99,tws,2013-09-25 15:49:00,
2013-09-25 11:54:00,68.0,55.3,29.93,SSW,202,0.2,0.2,63,-99.99,,,-99.99,tws,2013-09-25 15:54:00,
2013-09-25 11:59:00,68.3,55.3,29.93,SSE,157,3.6,3.6,62,-99.99,,,-99.99,tws,2013-09-25 15:59:00,
2013-09-25 12:04:00,69.3,56.8,29.93,NNE,22,0.0,0.0,64,-99.99,,,-99.99,tws,2013-09-25 16:04:00,
2013-09-25 12:09:00,64.2,53.0,29.93,West,270,6.3,6.3,66,-99.99,,,-99.99,tws,2013-09-25 16:09:00,
2013-09-25 12:14:00,66.5,54.5,29.93,WNW,292,0.4,0.4,64,-99.99,,,-99.99,tws,2013-09-25 16:14:00,
2013-09-25 12:19:00,70.3,57.8,29.93,East,90,0.1,0.1,64,-99.99,,,-99.99,tws,2013-09-25 16:19:00,
2013-09-25 12:24:00,69.0,54.3,29.93,North,360,0.0,0.0,59,-99.99,,,-99.99,tws,2013-09-25 16:24:00,
2013-09-25 12:29:00,71.3,55.8,29.93,SE,135,4.8,4.8,57,-99.99,,,-99.99,tws,2013-09-25 16:29:00,
2013-09-25 12:34:00,70.6,55.2,29.93,North,360,0.2,0.2,57,-99.99,,,-99.99,tws,2013-09-25 16:34:00,
2013-09-25 12:39:00,66.3,54.3,29.93,NNW,337,8.5,8.5,64,-99.99,,,-99.99,tws,2013-09-25 16:39:00,
2013-09-25 12:44:00,65.2,52.8,29.93,NW,315,3.6,3.6,63,-99.99,,,-99.99,tws,2013-09-25 16:44:00,
2013-09-25 12:49:00,71.0,56.7,29.93,East,90,9.4,9.4,60,-99.99,,,-99.99,tws,2013-09-25 16:49:00,
2013-09-25 12:54:00,67.5,53.8,29.93,NE,45,0.4,0.4,61,-99.99,,,-99.99,tws,2013-09-25 16:54:00,
2013-09-25 12:59:00,67.1,53.8,29.93,North,360,0.0,0.0,61,-99.99,,,-99.99,tws,2013-09-25 16:59:00,
2013-09-25 13:04:00,68.9,54.9,29.92,NE,45,0.0,0.0,60,-99.99,,,-99.99,tws,2013-09-25 17:04:00,
2013-09-25 13:09:00,74.0,58.8,29.92,SE,135,4.0,4.0,58,-99.99,,,-99.99,tws,2013-09-25 17:09:00,
2013-09-25 13:14:00,73.0,57.8,29.92,East,90,9.0,9.0,58,-99.99,,,-99.99,tws,2013-09-25 17:14:00,
2013-09-25 13:19:00,73.8,57.1,29.91,SSW,202,0.0,0.0,55,-99.99,,,-99.99,tws,2013-09-25 17:19:00,
2013-09-25 13:24:00,74.1,58.2,29.91,NE,45,0.4,0.4,57,-99.99,,,-99.99,tws,2013-09-25 17:24:00,
2013-09-25 13:29:00,68.1,53.9,29.91,NW,315,6.6,6.6,60,-99.99,,,-99.99,tws,2013-09-25 17:29:00,
2013-09-25 13:34:00,71.3,56.2,29.91,NE,45,4.8,4.8,58,-99.99,,,-99.99,tws,2013-09-25 17:34:00,
2013-09-25 13:39:00,68.1,55.2,29.91,West,270,5.2,5.2,62,-99.99,,,-99.99,tws,2013-09-25 17:39:00,
2013-09-25 13:44:00,72.8,57.1,29.91,WNW,292,0.1,0.1,57,-99.99,,,-99.99,tws,2013-09-25 17:44:00,
2013-09-25 13:49:00,70.3,56.2,29.91,NNW,337,0.6,0.6,60,-99.99,,,-99.99,tws,2013-09-25 17:49:00,
2013-09-25 13:54:00,74.8,59.0,29.91,NNE,22,0.6,0.6,57,-99.99,,,-99.99,tws,2013-09-25 17:54:00,
2013-09-25 13:59:00,73.0,56.7,29.90,NNE,22,4.2,4.2,56,-99.99,,,-99.99,tws,2013-09-25 17:59:00,
2013-09-25 14:04:00,76.4,59.1,29.90,South,180,0.8,0.8,54,-99.99,,,-99.99,tws,2013-09-25 18:04:00,
2013-09-25 14:09:00,76.8,58.1,29.89,SE,135,0.6,0.6,52,-99.99,,,-99.99,tws,2013-09-25 18:09:00,
2013-09-25 14:14:00,77.6,61.3,29.90,WNW,292,0.1,0.1,56,-99.99,,,-99.99,tws,2013-09-25 18:14:00,
2013-09-25 14:19:00,72.2,56.8,29.90,ENE,67,2.2,2.2,58,-99.99,,,-99.99,tws,2013-09-25 18:19:00,
2013-09-25 14:24:00,71.2,54.9,29.89,NW,315,3.6,3.6,56,-99.99,,,-99.99,tws,2013-09-25 18:24:00,
2013-09-25 14:29:00,71.1,56.1,29.89,ENE,67,2.0,2.0,58,-99.99,,,-99.99,tws,2013-09-25 18:29:00,
2013-09-25 14:34:00,73.3,56.8,29.89,NW,315,5.9,5.9,55,-99.99,,,-99.99,tws,2013-09-25 18:34:00,
2013-09-25 14:39:00,76.5,57.9,29.89,NE,45,3.4,3.4,52,-99.99,,,-99.99,tws,2013-09-25 18:39:00,
2013-09-25 14:44:00,76.6,60.3,29.89,ESE,112,4.1,4.1,56,-99.99,,,-99.99,tws,2013-09-25 18:44:00,
2013-09-25 14:49:00,74.8,56.4,29.89,NNE,22,5.0,5.0,52,-99.99,,,-99.99,tws,2013-09-25 18:49:00,
2013-09-25 14:54:00,74.3,54.8,29.89,NE,45,2.0,2.0,50,-99.99,,,-99.99,tws,2013-09-25 18:54:00,
2013-09-25 14:59:00,72.5,54.6,29.89,East,90,2.8,2.8,52,-99.99,,,-99.99,tws,2013-09-25 18:59:00,
2013-09-25 15:04:00,73.0,54.3,29.89,WNW,292,5.1,5.1,51,-99.99,,,-99.99,tws,2013-09-25 19:04:00,
2013-09-25 15:09:00,72.3,55.7,29.88,West,270,5.2,5.2,55,-99.99,,,-99.99,tws,2013-09-25 19:09:00,
2013-09-25 15:15:00,71.1,54.5,29.89,WNW,292,7.3,7.3,55,-99.99,,,-99.99,tws,2013-09-25 19:15:00,
2013-09-25 15:20:00,72.0,55.3,29.89,West,270,6.7,6.7,55,-99.99,,,-99.99,tws,2013-09-25 19:20:00,
2013-09-25 15:25:00,77.1,57.6,29.88,WNW,292,0.5,0.5,50,-99.99,,,-99.99,tws,2013-09-25 19:25:00,
2013-09-25 15:30:00,76.1,57.0,29.88,NNE,22,8.9,8.9,51,-99.99,,,-99.99,tws,2013-09-25 19:30:00,
2013-09-25 15:35:00,76.7,57.1,29.88,WNW,292,6.1,6.1,50,-99.99,,,-99.99,tws,2013-09-25 19:35:00,
2013-09-25 15:40:00,76.5,57.1,29.88,NW,315,2.3,2.3,50,-99.99,,,-99.99,tws,2013-09-25 19:40:00,
2013-09-25 15:45:00,75.6,57.2,29.88,NNE,22,0.1,0.1,52,-99.99,,,-99.99,tws,2013-09-25 19:45:00,
2013-09-25 15:50:00,80.5,58.5,29.88,NE,45,6.9,6.9,46,-99.99,,,-99.99,tws,2013-09-25 19:50:00,
2013-09-25 15:55:00,78.7,58.0,29.88,NE,45,3.7,3.7,48,-99.99,,,-99.99,tws,2013-09-25 19:55:00,
2013-09-25 16:00:00,74.4,56.0,29.88,North,360,0.9,0.9,52,-99.99,,,-99.99,tws,2013-09-25 20:00:00,
2013-09-25 16:05:00,78.8,59.4,29.88,NE,45,1.0,1.0,50,-99.99,,,-99.99,tws,2013-09-25 20:05:00,
2013-09-25 16:10:00,76.7,56.7,29.88,NW,315,1.3,1.3,49,-99.99,,,-99.99,tws,2013-09-25 20:10:00,
2013-09-25 16:15:00,76.5,57.8,29.88,North,0,2.1,2.1,51,-99.99,,,-99.99,tws,2013-09-25 20:15:00,
2013-09-25 16:20:00,79.3,58.4,29.88,WNW,292,0.1,0.1,48,-99.99,,,-99.99,tws,2013-09-25 20:20:00,
2013-09-25 16:25:00,80.3,58.6,29.88,NNE,22,2.3,2.3,47,-99.99,,,-99.99,tws,2013-09-25 20:25:00,
2013-09-25 16:30:00,79.5,58.0,29.88,NNW,337,0.0,0.0,47,-99.99,,,-99.99,tws,2013-09-25 20:30:00,
2013-09-25 16:35:00,79.2,57.9,29.88,East,90,3.6,3.6,47,-99.99,,,-99.99,tws,2013-09-25 20:35:00,
2013-09-25 16:40:00,78.7,56.9,29.88,NNE,22,0.1,0.1,46,-99.99,,,-99.99,tws,2013-09-25 20:40:00,
2013-09-25 16:45:00,79.3,58.6,29.87,East,90,2.0,2.0,48,-99.99,,,-99.99,tws,2013-09-25 20:45:00,
2013-09-25 16:50:00,80.0,57.8,29.87,East,90,1.5,1.5,46,-99.99,,,-99.99,tws,2013-09-25 20:50:00,
2013-09-25 16:55:00,80.1,58.4,29.87,North,0,3.6,3.6,47,-99.99,,,-99.99,tws,2013-09-25 20:55:00,
2013-09-25 17:00:00,79.7,58.4,29.87,NE,45,1.0,1.0,47,-99.99,,,-99.99,tws,2013-09-25 21:00:00,
2013-09-25 17:05:00,77.3,57.5,29.87,NNE,22,0.5,0.5,50,-99.99,,,-99.99,tws,2013-09-25 21:05:00,
2013-09-25 17:10:00,79.3,57.7,29.87,North,0,0.0,0.0,47,-99.99,,,-99.99,tws,2013-09-25 21:10:00,
2013-09-25 17:15:00,76.6,56.4,29.87,NE,45,3.6,3.6,49,-99.99,,,-99.99,tws,2013-09-25 21:15:00,
2013-09-25 17:20:00,75.9,57.9,29.88,East,90,0.9,0.9,53,-99.99,,,-99.99,tws,2013-09-25 21:20:00,
2013-09-25 17:25:00,76.2,57.8,29.87,NNE,22,1.9,1.9,52,-99.99,,,-99.99,tws,2013-09-25 21:25:00,
2013-09-25 17:30:00,75.2,58.4,29.88,North,360,2.6,2.6,55,-99.99,,,-99.99,tws,2013-09-25 21:30:00,
2013-09-25 17:35:00,73.7,58.2,29.88,NNE,22,2.9,2.9,57,-99.99,,,-99.99,tws,2013-09-25 21:35:00,
2013-09-25 17:40:00,73.3,56.2,29.88,NNE,22,0.5,0.5,54,-99.99,,,-99.99,tws,2013-09-25 21:40:00,
2013-09-25 17:45:00,73.2,58.1,29.88,North,360,0.0,0.0,58,-99.99,,,-99.99,tws,2013-09-25 21:45:00,
2013-09-25 17:50:00,74.1,57.1,29.88,NNW,337,0.0,0.0,54,-99.99,,,-99.99,tws,2013-09-25 21:50:00,
2013-09-25 17:55:00,73.0,57.2,29.88,NE,45,0.0,0.0,57,-99.99,,,-99.99,tws,2013-09-25 21:55:00,
2013-09-25 18:00:00,72.2,56.8,29.89,NNE,22,0.0,0.0,57,-99.99,,,-99.99,tws,2013-09-25 22:00:00,
2013-09-25 18:05:00,70.6,56.4,29.89,NNE,22,0.0,0.0,60,-99.99,,,-99.99,tws,2013-09-25 22:05:00,
2013-09-25 18:10:00,69.8,55.8,29.89,NNE,22,0.0,0.0,60,-99.99,,,-99.99,tws,2013-09-25 22:10:00,
2013-09-25 18:15:00,72.4,56.9,29.89,NNE,22,0.0,0.0,57,-99.99,,,-99.99,tws,2013-09-25 22:15:00,
2013-09-25 18:20:00,71.4,56.7,29.89,North,0,0.0,0.0,59,-99.99,,,-99.99,tws,2013-09-25 22:20:00,
2013-09-25 18:25:00,70.3,55.4,29.89,North,360,0.0,0.0,58,-99.99,,,-99.99,tws,2013-09-25 22:25:00,
2013-09-25 18:30:00,68.7,56.3,29.89,North,0,0.0,0.0,64,-99.99,,,-99.99,tws,2013-09-25 22:30:00,
2013-09-25 18:35:00,66.9,56.9,29.89,NE,45,0.0,0.0,69,-99.99,,,-99.99,tws,2013-09-25 22:35:00,
2013-09-25 18:40:00,65.0,57.4,29.89,North,0,0.0,0.0,76,-99.99,,,-99.99,tws,2013-09-25 22:40:00,
2013-09-25 18:45:00,63.6,57.0,29.89,North,0,0.0,0.0,78,-99.99,,,-99.99,tws,2013-09-25 22:45:00,
2013-09-25 18:50:00,63.2,56.6,29.89,North,360,0.0,0.0,78,-99.99,,,-99.99,tws,2013-09-25 22:50:00,
2013-09-25 18:55:00,63.4,56.8,29.89,ENE,67,0.0,0.0,78,-99.99,,,-99.99,tws,2013-09-25 22:55:00,
2013-09-25 19:00:00,63.2,56.9,29.89,NE,45,0.0,0.0,79,-99.99,,,-99.99,tws,2013-09-25 23:00:00,
2013-09-25 19:05:00,62.5,56.3,29.89,NE,45,0.0,0.0,79,-99.99,,,-99.99,tws,2013-09-25 23:05:00,
2013-09-25 19:10:00,61.2,55.9,29.89,NNE,22,0.0,0.0,82,-99.99,,,-99.99,tws,2013-09-25 23:10:00,
2013-09-25 19:15:00,60.6,56.3,29.89,NNE,22,0.0,0.0,85,-99.99,,,-99.99,tws,2013-09-25 23:15:00,
2013-09-25 19:20:00,60.2,56.0,29.90,WSW,247,0.0,0.0,85,-99.99,,,-99.99,tws,2013-09-25 23:20:00,
2013-09-25 19:25:00,59.0,56.0,29.90,WSW,247,0.0,0.0,89,-99.99,,,-99.99,tws,2013-09-25 23:25:00,
2013-09-25 19:30:00,59.0,55.5,29.90,SSW,202,0.0,0.0,87,-99.99,,,-99.99,tws,2013-09-25 23:30:00,
2013-09-25 19:35:00,59.0,55.4,29.90,SSE,157,0.0,0.0,87,-99.99,,,-99.99,tws,2013-09-25 23:35:00,
2013-09-25 19:40:00,58.8,55.4,29.90,SSE,157,0.0,0.0,88,-99.99,,,-99.99,tws,2013-09-25 23:40:00,
2013-09-25 19:45:00,58.8,55.3,29.90,SSE,157,0.0,0.0,88,-99.99,,,-99.99,tws,2013-09-25 23:45:00,
2013-09-25 19:50:00,58.0,54.9,29.90,SE,135,2.2,2.2,89,-99.99,,,-99.99,tws,2013-09-25 23:50:00,
2013-09-25 19:55:00,57.1,54.4,29.90,SE,135,2.1,2.1,90,-99.99,,,-99.99,tws,2013-09-25 23:55:00,
2013-09-25 20:00:00,56.8,54.2,29.91,ESE,112,0.0,0.0,91,-99.99,,,-99.99,tws,2013-09-26 00:00:00,
2013-09-25 20:05:00,55.8,53.6,29.91,SE,135,0.0,0.0,92,-99.99,,,-99.99,tws,2013-09-26 00:05:00,
2013-09-25 20:10:00,54.1,52.5,29.91,West,270,0.0,0.0,94,-99.99,,,-99.99,tws,2013-09-26 00:10:00,
2013-09-25 20:15:00,53.0,51.8,29.91,West,270,0.0,0.0,96,-99.99,,,-99.99,tws,2013-09-26 00:15:00,
2013-09-25 20:20:00,53.7,52.7,29.91,West,270,2.3,2.3,96,-99.99,,,-99.99,tws,2013-09-26 00:20:00,
2013-09-25 20:25:00,55.3,53.5,29.91,West,270,0.0,0.0,93,-99.99,,,-99.99,tws,2013-09-26 00:25:00,
2013-09-25 20:30:00,55.9,53.4,29.91,West,270,0.0,0.0,91,-99.99,,,-99.99,tws,2013-09-26 00:30:00,
2013-09-25 20:35:00,53.7,51.9,29.91,West,270,0.0,0.0,93,-99.99,,,-99.99,tws,2013-09-26 00:35:00,
2013-09-25 20:40:00,54.5,52.5,29.92,SSW,202,0.0,0.0,92,-99.99,,,-99.99,tws,2013-09-26 00:40:00,
2013-09-25 20:45:00,54.5,52.5,29.92,SE,135,0.0,0.0,92,-99.99,,,-99.99,tws,2013-09-26 00:45:00,
2013-09-25 20:51:00,54.1,52.4,29.92,SE,135,0.0,0.0,94,-99.99,,,-99.99,tws,2013-09-26 00:51:00,
2013-09-25 20:56:00,54.4,52.6,29.92,ENE,67,0.0,0.0,93,-99.99,,,-99.99,tws,2013-09-26 00:56:00,
2013-09-25 21:01:00,54.1,52.0,29.92,NE,45,0.0,0.0,92,-99.99,,,-99.99,tws,2013-09-26 01:01:00,
2013-09-25 21:06:00,53.1,51.4,29.93,NNE,22,0.0,0.0,93,-99.99,,,-99.99,tws,2013-09-26 01:06:00,
2013-09-25 21:11:00,53.2,51.7,29.93,NE,45,0.0,0.0,94,-99.99,,,-99.99,tws,2013-09-26 01:11:00,
2013-09-25 21:16:00,53.0,51.3,29.93,NE,45,0.0,0.0,93,-99.99,,,-99.99,tws,2013-09-26 01:16:00,
2013-09-25 21:21:00,53.6,51.7,29.93,East,90,0.0,0.0,93,-99.99,,,-99.99,tws,2013-09-26 01:21:00,
2013-09-25 21:26:00,53.2,51.6,29.93,ENE,67,0.0,0.0,94,-99.99,,,-99.99,tws,2013-09-26 01:26:00,
2013-09-25 21:31:00,52.4,50.8,29.93,North,0,0.0,0.0,94,-99.99,,,-99.99,tws,2013-09-26 01:31:00,
2013-09-25 21:36:00,53.0,51.3,29.93,NE,45,0.0,0.0,94,-99.99,,,-99.99,tws,2013-09-26 01:36:00,
2013-09-25 21:41:00,52.4,50.9,29.93,NNE,22,0.0,0.0,94,-99.99,,,-99.99,tws,2013-09-26 01:41:00,
2013-09-25 21:46:00,52.2,50.7,29.93,NNE,22,0.0,0.0,94,-99.99,,,-99.99,tws,2013-09-26 01:46:00,
2013-09-25 21:51:00,53.1,51.3,29.93,NE,45,0.0,0.0,93,-99.99,,,-99.99,tws,2013-09-26 01:51:00,
2013-09-25 21:56:00,52.2,50.5,29.93,East,90,0.0,0.0,94,-99.99,,,-99.99,tws,2013-09-26 01:56:00,
2013-09-25 22:01:00,51.7,50.2,29.94,East,90,0.0,0.0,94,-99.99,,,-99.99,tws,2013-09-26 02:01:00,
2013-09-25 22:06:00,51.7,50.2,29.94,ENE,67,0.0,0.0,94,-99.99,,,-99.99,tws,2013-09-26 02:06:00,
2013-09-25 22:11:00,51.7,50.2,29.94,East,90,0.0,0.0,94,-99.99,,,-99.99,tws,2013-09-26 02:11:00,
2013-09-25 22:16:00,52.2,50.5,29.94,East,90,0.0,0.0,93,-99.99,,,-99.99,tws,2013-09-26 02:16:00,
2013-09-25 22:21:00,52.0,50.4,29.94,NE,45,0.0,0.0,94,-99.99,,,-99.99,tws,2013-09-26 02:21:00,
2013-09-25 22:26:00,51.0,49.7,29.94,NNE,22,0.0,0.0,95,-99.99,,,-99.99,tws,2013-09-26 02:26:00,
2013-09-25 22:31:00,51.4,49.9,29.94,ENE,67,0.0,0.0,94,-99.99,,,-99.99,tws,2013-09-26 02:31:00,
2013-09-25 22:36:00,51.2,49.7,29.94,NNE,22,0.0,0.0,94,-99.99,,,-99.99,tws,2013-09-26 02:36:00,
2013-09-25 22:41:00,51.6,50.0,29.95,NE,45,0.0,0.0,94,-99.99,,,-99.99,tws,2013-09-26 02:41:00,
2013-09-25 22:46:00,50.9,49.8,29.95,NE,45,0.0,0.0,95,-99.99,,,-99.99,tws,2013-09-26 02:46:00,
2013-09-25 22:51:00,51.4,50.1,29.95,North,0,0.0,0.0,95,-99.99,,,-99.99,tws,2013-09-26 02:51:00,
2013-09-25 22:56:00,49.7,48.6,29.95,North,0,0.0,0.0,95,-99.99,,,-99.99,tws,2013-09-26 02:56:00,
2013-09-25 23:01:00,50.4,49.3,29.95,North,0,0.0,0.0,96,-99.99,,,-99.99,tws,2013-09-26 03:01:00,
2013-09-25 23:06:00,51.0,49.7,29.95,North,0,0.0,0.0,95,-99.99,,,-99.99,tws,2013-09-26 03:06:00,
2013-09-25 23:11:00,51.0,49.7,29.95,ENE,67,0.0,0.0,95,-99.99,,,-99.99,tws,2013-09-26 03:11:00,
2013-09-25 23:16:00,51.0,49.8,29.95,ENE,67,0.0,0.0,95,-99.99,,,-99.99,tws,2013-09-26 03:16:00,
2013-09-25 23:21:00,50.6,49.6,29.95,East,90,3.5,3.5,96,-99.99,,,-99.99,tws,2013-09-26 03:21:00,
2013-09-25 23:26:00,51.4,50.4,29.95,NE,45,4.6,4.6,96,-99.99,,,-99.99,tws,2013-09-26 03:26:00,
2013-09-25 23:31:00,51.5,50.5,29.95,NNE,22,2.4,2.4,96,-99.99,,,-99.99,tws,2013-09-26 03:31:00,
2013-09-25 23:36:00,52.2,51.0,29.95,NE,45,0.0,0.0,95,-99.99,,,-99.99,tws,2013-09-26 03:36:00,
2013-09-25 23:41:00,51.9,50.8,29.95,NNE,22,3.7,3.7,95,-99.99,,,-99.99,tws,2013-09-26 03:41:00,
2013-09-25 23:46:00,52.5,51.3,29.96,NE,45,8.1,8.1,95,-99.99,,,-99.99,tws,2013-09-26 03:46:00,
2013-09-25 23:51:00,53.2,51.9,29.96,NNE,22,3.7,3.7,95,-99.99,,,-99.99,tws,2013-09-26 03:51:00,
2013-09-25 23:56:00,53.4,51.9,29.96,NNE,22,4.7,4.7,94,-99.99,,,-99.99,tws,2013-09-26 03:56:00,